Time;durP1;ratioP1;P1;durP2;ratioP2;P2;SDS_P1;SDS_P2;PMS_P1;PMS_P2;Temp;Humidity;BMP_temperature;BMP_pressure;BME280_temperature;BME280_humidity;BME280_pressure;Samples;Min_cycle;Max_cycle;Signal;HPM_P1;HPM_P2
2021/08/06 00:04:09;;;;;;;2.47;1.10;;;13.90;99.90;;;;;;20846137;28;20129;-79
2021/08/06 00:14:10;;;;;;;3.27;1.20;;;14.10;99.90;;;;;;20829071;28;20025;-80
2021/08/06 00:24:11;;;;;;;3.40;1.53;;;14.10;99.90;;;;;;20847674;28;20033;-78
2021/08/06 00:34:12;;;;;;;2.07;1.30;;;14.10;99.90;;;;;;20829478;28;20033;-78
2021/08/06 00:44:15;;;;;;;2.20;1.50;;;14.30;99.90;;;;;;20830242;28;20032;-79
2021/08/06 00:54:18;;;;;;;;;;;14.40;99.90;;;;;;20851522;28;20376;-80
2021/08/06 01:04:41;;;;;;;5.57;1.50;;;14.40;99.90;;;;;;20833001;28;20380;-80
2021/08/06 01:14:42;;;;;;;2.15;1.60;;;14.50;99.90;;;;;;20830427;28;20292;-79
2021/08/06 01:25:01;;;;;;;2.80;1.58;;;14.50;99.90;;;;;;20828205;28;20041;-80
2021/08/06 01:35:05;;;;;;;1.90;1.52;;;14.50;99.90;;;;;;20829614;28;20364;-77
2021/08/06 01:45:11;;;;;;;6.85;2.17;;;14.50;99.90;;;;;;20842007;28;20402;-78
2021/08/06 01:55:15;;;;;;;5.50;2.67;;;14.60;99.90;;;;;;20839648;28;20132;-77
2021/08/06 02:05:22;;;;;;;3.55;1.83;;;14.50;99.90;;;;;;20829406;28;20506;-79
2021/08/06 02:15:26;;;;;;;6.32;2.30;;;14.40;99.90;;;;;;20843241;28;20133;-78
2021/08/06 02:25:28;;;;;;;3.30;2.08;;;14.40;99.90;;;;;;20825377;28;20033;-78
2021/08/06 02:35:32;;;;;;;6.35;2.28;;;14.30;99.90;;;;;;20860509;28;20033;-78
2021/08/06 02:45:33;;;;;;;4.00;2.20;;;14.30;99.90;;;;;;20937943;28;20029;-79
2021/08/06 02:55:34;;;;;;;3.30;2.30;;;14.30;99.90;;;;;;20914641;28;20033;-78
2021/08/06 03:05:35;;;;;;;8.05;2.75;;;14.40;99.90;;;;;;20860521;28;20025;-78
2021/08/06 03:15:37;;;;;;;4.57;2.50;;;14.50;99.90;;;;;;20843874;28;20060;-80
2021/08/06 03:25:38;;;;;;;4.50;2.57;;;14.50;99.90;;;;;;20835606;28;20674;-80
2021/08/06 03:35:39;;;;;;;4.73;2.23;;;14.40;99.90;;;;;;20834527;28;20116;-77
2021/08/06 03:45:41;;;;;;;6.27;2.57;;;14.40;99.90;;;;;;20815742;28;20029;-78
2021/08/06 03:55:44;;;;;;;3.40;2.30;;;14.50;99.90;;;;;;20828659;28;20065;-79
2021/08/06 04:05:46;;;;;;;3.40;2.40;;;14.50;99.90;;;;;;20830485;28;20060;-79
2021/08/06 04:15:50;;;;;;;4.32;2.30;;;14.50;99.90;;;;;;20828876;28;20026;-80
2021/08/06 04:25:52;;;;;;;6.33;2.57;;;14.60;99.90;;;;;;20847400;28;20430;-80
2021/08/06 04:35:53;;;;;;;3.57;2.60;;;14.60;99.90;;;;;;20827774;28;20288;-77
2021/08/06 04:45:54;;;;;;;4.47;3.10;;;14.60;99.90;;;;;;20827804;28;20540;-77
2021/08/06 04:55:55;;;;;;;7.87;2.77;;;14.50;99.90;;;;;;20828366;28;20037;-80
2021/08/06 05:05:56;;;;;;;5.30;2.80;;;14.70;99.90;;;;;;20824554;28;20068;-80
2021/08/06 05:16:00;;;;;;;4.23;2.37;;;15.00;99.90;;;;;;20835384;28;20128;-77
2021/08/06 05:26:02;;;;;;;4.63;2.60;;;14.90;99.90;;;;;;20846394;28;20033;-79
2021/08/06 05:36:03;;;;;;;4.83;2.57;;;15.00;99.90;;;;;;20828206;28;20033;-80
2021/08/06 05:46:04;;;;;;;;;;;15.10;99.90;;;;;;20838671;28;20272;-81
2021/08/06 05:56:07;;;;;;;;;;;15.30;99.90;;;;;;20834348;28;19913;-81
2021/08/06 06:06:22;;;;;;;12.07;4.00;;;15.40;99.90;;;;;;20820955;28;19908;-79
2021/08/06 06:16:23;;;;;;;6.85;4.43;;;15.30;99.90;;;;;;20853543;28;20052;-80
2021/08/06 06:26:24;;;;;;;5.47;2.97;;;15.90;99.90;;;;;;20817201;28;20124;-81
2021/08/06 06:36:27;;;;;;;3.83;2.50;;;16.10;99.90;;;;;;20825090;28;20092;-78
2021/08/06 06:46:29;;;;;;;4.45;2.00;;;16.00;99.90;;;;;;20806596;28;20025;-79
2021/08/06 06:56:30;;;;;;;4.80;2.13;;;16.30;99.90;;;;;;20826609;28;20060;-78
2021/08/06 07:06:32;;;;;;;;;;;16.70;99.90;;;;;;20824073;28;20033;-80
2021/08/06 07:16:33;;;;;;;3.03;2.05;;;16.60;99.90;;;;;;20814868;28;19920;-81
2021/08/06 07:26:34;;;;;;;3.50;2.10;;;16.90;99.90;;;;;;20851706;28;20026;-79
2021/08/06 07:36:35;;;;;;;3.57;2.03;;;17.30;99.90;;;;;;20834379;28;20037;-81
2021/08/06 07:46:36;;;;;;;6.53;2.23;;;17.60;99.90;;;;;;20834194;28;20103;-80
2021/08/06 07:56:37;;;;;;;3.77;2.67;;;17.60;99.90;;;;;;20834439;28;20029;-78
2021/08/06 08:06:38;;;;;;;6.93;1.77;;;18.60;99.90;;;;;;20850644;28;20025;-79
2021/08/06 08:16:39;;;;;;;3.07;1.60;;;18.80;99.90;;;;;;20849650;28;20527;-79
2021/08/06 08:26:40;;;;;;;7.32;1.83;;;18.80;99.90;;;;;;20847862;28;20109;-77
2021/08/06 08:36:41;;;;;;;5.82;2.15;;;18.80;99.90;;;;;;20812475;28;20057;-79
2021/08/06 08:46:46;;;;;;;6.40;1.73;;;19.80;99.90;;;;;;20819951;28;20182;-77
2021/08/06 08:56:47;;;;;;;5.68;1.48;;;19.40;99.90;;;;;;20844939;28;20033;-79
2021/08/06 09:06:49;;;;;;;4.50;1.47;;;19.30;99.90;;;;;;20828406;28;20440;-77
2021/08/06 09:17:13;;;;;;;3.33;1.50;;;19.20;99.90;;;;;;20841679;28;20053;-77
2021/08/06 09:27:17;;;;;;;5.68;1.63;;;19.80;99.90;;;;;;20846332;28;20030;-77
2021/08/06 09:37:22;;;;;;;4.85;1.40;;;20.40;99.90;;;;;;20867343;28;20022;-78
2021/08/06 09:47:23;;;;;;;7.63;1.48;;;22.20;99.90;;;;;;20832382;28;20045;-80
2021/08/06 09:57:24;;;;;;;;;;;20.70;99.90;;;;;;20849819;28;20175;-80
2021/08/06 10:07:26;;;;;;;4.50;1.20;;;20.20;99.90;;;;;;20831129;28;19913;-79
2021/08/06 10:17:29;;;;;;;3.83;1.00;;;20.10;99.90;;;;;;20845753;28;20029;-78
2021/08/06 10:27:30;;;;;;;4.65;1.25;;;20.00;99.90;;;;;;20847098;28;20120;-79
2021/08/06 10:37:46;;;;;;;;;;;20.50;99.90;;;;;;20839966;28;20030;-79
2021/08/06 10:47:52;;;;;;;5.18;0.80;;;21.00;99.90;;;;;;20840806;28;20392;-77
2021/08/06 10:57:53;;;;;;;3.22;0.70;;;21.40;99.90;;;;;;20828734;28;20096;-81
2021/08/06 11:07:54;;;;;;;4.53;1.00;;;21.30;99.90;;;;;;20840535;28;20041;-79
2021/08/06 11:17:55;;;;;;;2.70;0.90;;;21.70;99.90;;;;;;20848817;28;20083;-80
2021/08/06 11:28:00;;;;;;;3.87;1.10;;;21.20;99.90;;;;;;20835743;28;20061;-80
2021/08/06 11:38:09;;;;;;;3.90;1.10;;;22.00;99.90;;;;;;20818464;28;20029;-79
2021/08/06 11:48:11;;;;;;;3.10;0.90;;;21.70;99.90;;;;;;20832500;28;20091;-79
2021/08/06 11:58:13;;;;;;;6.32;0.85;;;22.50;99.90;;;;;;20848143;28;20084;-81
2021/08/06 12:08:32;;;;;;;3.83;0.80;;;22.20;99.90;;;;;;20829047;28;20529;-80
2021/08/06 12:18:35;;;;;;;3.75;0.98;;;22.90;99.90;;;;;;20847696;28;20095;-77
2021/08/06 12:28:39;;;;;;;3.28;0.70;;;22.60;99.90;;;;;;20803331;28;20037;-78
2021/08/06 12:38:41;;;;;;;5.53;1.50;;;23.60;99.90;;;;;;20821765;28;20574;-78
2021/08/06 12:49:01;;;;;;;6.35;0.80;;;23.60;99.90;;;;;;20820572;28;20600;-79
2021/08/06 12:59:19;;;;;;;4.18;1.17;;;24.50;99.90;;;;;;20840612;28;20033;-79
2021/08/06 13:09:43;;;;;;;6.43;0.90;;;23.80;99.90;;;;;;20838393;28;20136;-79
2021/08/06 13:19:44;;;;;;;4.07;1.25;;;24.20;99.90;;;;;;20808190;28;20537;-78
2021/08/06 13:29:45;;;;;;;;;;;24.00;99.90;;;;;;20813353;28;20036;-81
2021/08/06 13:39:46;;;;;;;2.90;0.80;;;24.10;99.90;;;;;;20821985;28;20421;-79
2021/08/06 13:49:47;;;;;;;1.98;0.65;;;24.30;99.90;;;;;;20821269;28;20522;-79
2021/08/06 13:59:47;;;;;;;3.83;1.20;;;24.70;99.90;;;;;;20818286;28;20067;-79
2021/08/06 14:09:48;;;;;;;;;;;24.50;99.90;;;;;;20816784;28;20061;-80
2021/08/06 14:19:49;;;;;;;7.03;1.08;;;24.60;99.90;;;;;;20819930;28;19971;-78
2021/08/06 14:29:50;;;;;;;8.52;1.70;;;24.60;99.90;;;;;;20835768;28;20128;-79
2021/08/06 14:39:51;;;;;;;7.07;0.90;;;24.80;99.90;;;;;;20800828;28;20289;-80
2021/08/06 14:49:52;;;;;;;4.75;0.95;;;24.70;99.90;;;;;;20834797;28;20033;-79
2021/08/06 14:59:53;;;;;;;7.97;0.95;;;24.30;99.90;;;;;;20840800;28;20037;-79
2021/08/06 15:09:54;;;;;;;3.65;1.08;;;24.70;99.90;;;;;;20888965;28;20478;-82
2021/08/06 15:19:54;;;;;;;2.63;1.10;;;24.80;99.90;;;;;;20908738;28;20116;-79
2021/08/06 15:29:55;;;;;;;2.03;0.60;;;24.60;99.90;;;;;;20913162;28;20162;-79
2021/08/06 15:39:56;;;;;;;3.75;0.70;;;24.70;99.90;;;;;;20886593;28;20494;-79
2021/08/06 15:49:57;;;;;;;6.45;0.90;;;24.40;99.90;;;;;;20886241;28;20055;-78
2021/08/06 15:59:58;;;;;;;3.83;0.80;;;23.90;99.90;;;;;;20853138;28;20038;-76
2021/08/06 16:09:59;;;;;;;7.33;0.80;;;23.10;99.90;;;;;;20803659;28;20036;-77
2021/08/06 16:20:00;;;;;;;2.23;0.50;;;22.90;99.90;;;;;;20821250;28;20510;-77
2021/08/06 16:30:01;;;;;;;;;;;22.90;99.90;;;;;;20802118;28;20064;-79
2021/08/06 16:40:03;;;;;;;2.83;0.80;;;22.80;99.90;;;;;;20811070;28;19913;-77
2021/08/06 16:50:04;;;;;;;2.83;0.73;;;22.60;99.90;;;;;;20800712;28;20676;-78
2021/08/06 17:00:08;;;;;;;1.40;0.60;;;22.80;99.90;;;;;;20801449;28;20033;-78
2021/08/06 17:10:10;;;;;;;76.70;12.50;;;22.70;99.90;;;;;;20832436;28;20040;-79
2021/08/06 17:20:11;;;;;;;5.97;0.95;;;22.70;99.90;;;;;;20831727;28;20127;-81
2021/08/06 17:30:12;;;;;;;3.25;1.33;;;22.10;99.90;;;;;;20827113;28;20037;-78
2021/08/06 17:40:13;;;;;;;13.35;2.65;;;21.90;99.90;;;;;;20808765;28;20411;-78
2021/08/06 17:50:14;;;;;;;2.70;0.70;;;21.70;99.90;;;;;;20828996;28;20033;-78
2021/08/06 18:00:15;;;;;;;4.73;1.20;;;21.40;99.90;;;;;;20843447;28;20031;-78
2021/08/06 18:10:16;;;;;;;3.77;0.93;;;21.30;99.90;;;;;;20847380;28;20029;-78
2021/08/06 18:20:17;;;;;;;4.03;1.30;;;21.10;99.90;;;;;;20844945;28;20115;-77
2021/08/06 18:30:20;;;;;;;1.30;0.83;;;20.60;99.90;;;;;;20825829;28;20033;-77
2021/08/06 18:40:22;;;;;;;4.10;0.70;;;20.20;99.90;;;;;;20837597;28;20067;-77
2021/08/06 18:50:30;;;;;;;3.70;0.82;;;19.30;99.90;;;;;;20840922;28;20037;-76
2021/08/06 19:00:31;;;;;;;3.90;0.90;;;18.60;99.90;;;;;;20838474;28;20502;-80
2021/08/06 19:10:32;;;;;;;5.27;0.80;;;18.20;99.90;;;;;;20836216;28;20448;-78
2021/08/06 19:20:33;;;;;;;3.83;1.23;;;17.70;99.90;;;;;;20853576;28;20039;-78
2021/08/06 19:30:41;;;;;;;;;;;17.30;99.90;;;;;;20854118;28;20446;-78
2021/08/06 19:40:42;;;;;;;10.18;2.42;;;17.30;99.90;;;;;;20837334;28;19913;-79
2021/08/06 19:50:43;;;;;;;4.03;1.40;;;17.10;99.90;;;;;;20834959;28;20033;-81
2021/08/06 20:00:45;;;;;;;4.17;1.20;;;16.70;99.90;;;;;;20832257;28;20088;-80
2021/08/06 20:10:46;;;;;;;2.85;1.50;;;16.30;99.90;;;;;;20832076;28;20040;-79
2021/08/06 20:20:47;;;;;;;4.20;1.50;;;16.40;99.90;;;;;;20812827;28;20057;-80
2021/08/06 20:30:49;;;;;;;9.25;2.40;;;16.00;99.90;;;;;;20815347;28;20099;-80
2021/08/06 20:40:50;;;;;;;3.87;1.90;;;16.30;99.90;;;;;;20850291;28;20025;-81
2021/08/06 20:50:51;;;;;;;10.83;1.60;;;16.10;99.90;;;;;;20845668;28;20059;-80
2021/08/06 21:00:52;;;;;;;2.27;1.47;;;15.70;99.90;;;;;;20865167;28;20479;-78
2021/08/06 21:10:53;;;;;;;9.63;1.77;;;15.60;99.90;;;;;;20845055;28;20048;-77
2021/08/06 21:20:54;;;;;;;3.10;1.50;;;15.60;99.90;;;;;;20843568;28;20041;-79
2021/08/06 21:30:54;;;;;;;4.93;1.43;;;15.70;99.90;;;;;;20824929;28;20037;-79
2021/08/06 21:40:55;;;;;;;3.30;1.43;;;15.60;99.90;;;;;;20857109;28;20049;-78
2021/08/06 21:50:56;;;;;;;9.03;1.90;;;15.40;99.90;;;;;;20861042;28;20029;-80
2021/08/06 22:00:57;;;;;;;3.07;1.43;;;15.70;99.90;;;;;;20858985;28;20045;-80
2021/08/06 22:10:58;;;;;;;3.37;1.57;;;15.80;99.90;;;;;;20823210;28;20045;-80
2021/08/06 22:20:59;;;;;;;3.50;1.43;;;15.60;99.90;;;;;;20841815;28;20108;-79
2021/08/06 22:31:00;;;;;;;2.57;1.60;;;15.70;99.90;;;;;;20860141;28;20037;-80
2021/08/06 22:41:02;;;;;;;5.30;1.57;;;15.40;99.90;;;;;;20842634;28;20025;-81
2021/08/06 22:51:02;;;;;;;5.27;1.80;;;15.60;99.90;;;;;;20839801;28;20041;-81
2021/08/06 23:01:03;;;;;;;7.03;1.10;;;15.70;99.90;;;;;;20856770;28;20045;-79
2021/08/06 23:11:04;;;;;;;42.00;3.17;;;15.60;99.90;;;;;;20859546;28;20040;-80
2021/08/06 23:21:05;;;;;;;5.70;1.80;;;15.70;99.90;;;;;;20815399;28;20068;-77
2021/08/06 23:31:06;;;;;;;5.03;1.90;;;15.60;99.90;;;;;;20830142;28;20137;-78
2021/08/06 23:41:07;;;;;;;7.60;1.80;;;15.60;99.90;;;;;;20836802;28;20032;-77
2021/08/06 23:51:08;;;;;;;5.03;1.70;;;15.50;99.90;;;;;;20846207;28;20038;-79
